KBRY/BRY METAR and TAF weather

Enter ICAO airport designator
Station Type Date Time Source
KBRY METAR 2018/07/17 00:15 UTC NOAA

KBRY 170015Z AUTO 00000KT 10SM CLR 28/23 A2992 RMK AO1


Station Type Date Time Source
KBRY Decoded METAR 2018/07/17 00:15 UTC NOAA

Station name not available
Jul 16, 2018 - 08:15 PM EDT / 2018.07.17 0015 UTC
Wind: Calm:0
Visibility: 10 mile(s):0
Sky conditions: clear
Temperature: 82 F (28 C)
Dew Point: 73 F (23 C)
Relative Humidity: 74%
Pressure (altimeter): 29.92 in. Hg (1013 hPa)
ob: KBRY 170015Z AUTO 00000KT 10SM CLR 28/23 A2992 RMK AO1
cycle: 0

Station Type Date Time Source
KBRY TAF UTC NOAA

Error!


Example: see airport list